createdAt,value
2022-10-17T00:00:52.402Z,0.00
2022-10-17T00:01:52.449Z,0.00
2022-10-17T00:02:52.388Z,0.00
2022-10-17T00:03:52.364Z,0.00
2022-10-17T00:04:52.351Z,0.00
2022-10-17T00:05:52.344Z,0.00
2022-10-17T00:06:52.327Z,0.00
2022-10-17T00:07:52.313Z,0.00
2022-10-17T00:08:52.310Z,0.00
2022-10-17T00:09:52.282Z,0.00
2022-10-17T00:10:52.278Z,0.00
2022-10-17T00:11:52.257Z,0.00
2022-10-17T00:12:52.246Z,0.00
2022-10-17T00:13:52.241Z,0.00
2022-10-17T00:14:52.235Z,0.00
2022-10-17T00:15:52.210Z,0.00
2022-10-17T00:16:52.199Z,0.00
2022-10-17T00:17:52.183Z,0.00
2022-10-17T00:18:52.179Z,0.00
2022-10-17T00:19:52.157Z,0.00
2022-10-17T00:20:52.160Z,0.00
2022-10-17T00:21:52.138Z,0.00
2022-10-17T00:22:52.119Z,0.00
2022-10-17T00:23:52.109Z,0.00
2022-10-17T00:24:52.090Z,0.00
2022-10-17T00:25:52.081Z,0.00
2022-10-17T00:26:52.082Z,0.00
2022-10-17T00:27:52.053Z,0.00
2022-10-17T00:28:52.114Z,0.00
2022-10-17T00:29:52.031Z,0.00
2022-10-17T00:30:52.014Z,0.00
2022-10-17T00:31:52.007Z,0.00
2022-10-17T00:32:51.997Z,0.00
2022-10-17T00:33:51.978Z,0.00
2022-10-17T00:34:51.972Z,0.00
2022-10-17T00:35:51.951Z,0.00
2022-10-17T00:36:51.941Z,0.00
2022-10-17T00:37:51.925Z,0.00
2022-10-17T00:38:51.942Z,0.00
2022-10-17T00:39:51.899Z,0.00
2022-10-17T00:40:51.919Z,0.00
2022-10-17T00:41:51.875Z,0.00
2022-10-17T00:42:51.865Z,0.00
2022-10-17T00:43:51.851Z,0.00
2022-10-17T00:44:51.862Z,0.00
2022-10-17T00:45:51.823Z,0.00
2022-10-17T00:46:51.812Z,0.00
2022-10-17T00:47:51.798Z,0.00
2022-10-17T00:48:51.786Z,0.00
2022-10-17T00:49:51.806Z,0.00
2022-10-17T00:50:51.774Z,0.00
2022-10-17T00:51:51.755Z,0.00
2022-10-17T00:52:51.733Z,0.00
2022-10-17T00:53:51.722Z,0.00
2022-10-17T00:54:51.715Z,0.00
2022-10-17T00:55:51.708Z,0.00
2022-10-17T00:56:51.706Z,0.00
2022-10-17T00:57:51.679Z,0.00
2022-10-17T00:58:51.661Z,0.00
2022-10-17T00:59:51.657Z,0.00
2022-10-17T01:00:51.639Z,0.00
2022-10-17T01:01:51.619Z,0.00
2022-10-17T01:02:51.622Z,0.00
2022-10-17T01:03:51.599Z,0.00
2022-10-17T01:04:51.585Z,0.00
2022-10-17T01:05:51.575Z,0.00
2022-10-17T01:06:51.557Z,0.00
2022-10-17T01:07:51.550Z,0.00
2022-10-17T01:08:51.548Z,0.00
2022-10-17T01:09:51.519Z,0.00
2022-10-17T01:10:51.509Z,0.00
2022-10-17T01:11:51.493Z,0.00
2022-10-17T01:12:51.489Z,0.00
2022-10-17T01:13:51.474Z,0.00
2022-10-17T01:14:51.465Z,0.00
2022-10-17T01:15:51.445Z,0.00
2022-10-17T01:16:51.427Z,0.00
2022-10-17T01:17:51.418Z,0.00
2022-10-17T01:18:51.408Z,0.00
2022-10-17T01:19:51.395Z,0.00
2022-10-17T01:20:51.403Z,0.00
2022-10-17T01:21:51.368Z,0.00
2022-10-17T01:22:51.356Z,0.00
2022-10-17T01:23:51.345Z,0.00
2022-10-17T01:24:51.332Z,0.00
2022-10-17T01:25:51.316Z,0.00
2022-10-17T01:26:51.316Z,0.00
2022-10-17T01:27:51.294Z,0.00
2022-10-17T01:28:51.277Z,0.00
2022-10-17T01:29:51.265Z,0.00
2022-10-17T01:30:51.252Z,0.00
2022-10-17T01:31:51.239Z,0.00
2022-10-17T01:32:51.242Z,0.00
2022-10-17T01:33:51.215Z,0.00
2022-10-17T01:34:51.197Z,0.00
2022-10-17T01:35:51.194Z,0.00
2022-10-17T01:36:51.178Z,0.00
2022-10-17T01:37:54.194Z,0.00
2022-10-17T01:38:51.156Z,0.00
2022-10-17T01:39:51.138Z,0.00
2022-10-17T01:40:51.129Z,0.00
2022-10-17T01:41:51.125Z,0.00
2022-10-17T01:42:51.096Z,0.00
2022-10-17T01:43:51.082Z,0.00
2022-10-17T01:44:51.082Z,0.00
2022-10-17T01:45:51.059Z,0.00
2022-10-17T01:46:51.113Z,0.00
2022-10-17T01:47:51.029Z,0.00
2022-10-17T01:48:51.022Z,0.00
2022-10-17T01:49:51.003Z,0.00
2022-10-17T01:50:51.001Z,0.00
2022-10-17T01:51:50.988Z,0.00
2022-10-17T01:52:50.967Z,0.00
2022-10-17T01:53:50.948Z,0.00
2022-10-17T01:54:50.934Z,0.00
2022-10-17T01:55:50.982Z,0.00
2022-10-17T01:56:50.927Z,0.00
2022-10-17T01:57:50.900Z,0.00
2022-10-17T01:58:50.897Z,0.00
2022-10-17T01:59:50.877Z,0.00
2022-10-17T02:00:50.860Z,0.00
2022-10-17T02:01:51.064Z,0.00
2022-10-17T02:02:50.845Z,0.00
2022-10-17T02:03:50.819Z,0.00
2022-10-17T02:04:50.816Z,0.00
2022-10-17T02:05:50.797Z,0.00
2022-10-17T02:06:50.807Z,0.00
2022-10-17T02:07:50.770Z,0.00
2022-10-17T02:08:50.768Z,0.00
2022-10-17T02:09:50.741Z,0.00
2022-10-17T02:10:50.730Z,0.00
2022-10-17T02:11:50.720Z,0.00
2022-10-17T02:12:50.707Z,0.00
2022-10-17T02:13:50.691Z,0.00
2022-10-17T02:14:50.691Z,0.00
2022-10-17T02:15:56.677Z,0.00
2022-10-17T02:16:50.659Z,0.00
2022-10-17T02:17:50.636Z,0.00
2022-10-17T02:18:50.631Z,0.00
2022-10-17T02:19:50.620Z,0.00
2022-10-17T02:20:50.613Z,0.00
2022-10-17T02:21:50.605Z,0.00
2022-10-17T02:22:50.581Z,0.00
2022-10-17T02:23:50.561Z,0.00
2022-10-17T02:24:50.552Z,0.00
2022-10-17T02:25:50.541Z,0.00
2022-10-17T02:26:50.571Z,0.00
2022-10-17T02:27:50.517Z,0.00
2022-10-17T02:28:50.582Z,0.00
2022-10-17T02:29:50.489Z,0.00
2022-10-17T02:30:50.467Z,0.00
2022-10-17T02:31:50.457Z,0.00
2022-10-17T02:32:50.583Z,0.00
2022-10-17T02:33:50.431Z,0.00
2022-10-17T02:34:50.419Z,0.00
2022-10-17T02:35:50.408Z,0.00
2022-10-17T02:36:50.392Z,0.00
2022-10-17T02:37:50.377Z,0.00
2022-10-17T02:38:50.388Z,0.00
2022-10-17T02:39:50.353Z,0.00
2022-10-17T02:40:50.340Z,0.00
2022-10-17T02:41:50.327Z,0.00
2022-10-17T02:42:50.326Z,0.00
2022-10-17T02:43:50.308Z,0.00
2022-10-17T02:44:50.292Z,0.00
2022-10-17T02:45:50.271Z,0.00
2022-10-17T02:46:50.278Z,0.00
2022-10-17T02:47:50.248Z,0.00
2022-10-17T02:48:50.245Z,0.00
2022-10-17T02:49:50.226Z,0.00
2022-10-17T02:50:50.225Z,0.00
2022-10-17T02:51:50.215Z,0.00
2022-10-17T02:52:50.194Z,0.00
2022-10-17T02:53:50.179Z,0.00
2022-10-17T02:54:50.159Z,0.00
2022-10-17T02:55:50.155Z,0.00
2022-10-17T02:56:50.143Z,0.00
2022-10-17T02:57:50.119Z,0.00
2022-10-17T02:58:50.111Z,0.00
2022-10-17T02:59:50.100Z,0.00
2022-10-17T03:00:50.141Z,0.00
2022-10-17T03:01:50.064Z,0.00
2022-10-17T03:02:50.075Z,0.00
2022-10-17T03:03:50.049Z,0.00
2022-10-17T03:04:50.030Z,0.00
2022-10-17T03:05:50.018Z,0.00
2022-10-17T03:06:49.999Z,0.00
2022-10-17T03:07:49.987Z,0.00
2022-10-17T03:08:49.989Z,0.00
2022-10-17T03:09:49.980Z,0.00
2022-10-17T03:10:49.955Z,0.00
2022-10-17T03:11:49.933Z,0.00
2022-10-17T03:12:49.917Z,0.00
2022-10-17T03:13:49.908Z,0.00
2022-10-17T03:14:49.911Z,0.00
2022-10-17T03:15:49.884Z,0.00
2022-10-17T03:16:49.870Z,0.00
2022-10-17T03:17:49.865Z,0.00
2022-10-17T03:18:50.290Z,0.00
2022-10-17T03:19:49.859Z,0.00
2022-10-17T03:20:49.824Z,0.00
2022-10-17T03:21:49.839Z,0.00
2022-10-17T03:22:49.794Z,0.00
2022-10-17T03:23:49.792Z,0.00
2022-10-17T03:24:49.767Z,0.00
2022-10-17T03:25:49.757Z,0.00
2022-10-17T03:26:49.772Z,0.00
2022-10-17T03:27:49.726Z,0.00
2022-10-17T03:28:53.474Z,0.00
2022-10-17T03:29:49.715Z,0.00
2022-10-17T03:30:49.689Z,0.00
2022-10-17T03:31:49.686Z,0.00
2022-10-17T03:32:49.691Z,0.00
2022-10-17T03:33:49.652Z,0.00
2022-10-17T03:34:49.639Z,0.00
2022-10-17T03:36:49.615Z,0.00
2022-10-17T03:37:49.607Z,0.00
2022-10-17T03:38:49.614Z,0.00
2022-10-17T03:39:49.580Z,0.00
2022-10-17T03:40:49.570Z,0.00
2022-10-17T03:41:49.551Z,0.00
2022-10-17T03:42:49.549Z,0.00
2022-10-17T03:43:49.532Z,0.00
2022-10-17T03:44:49.528Z,0.00
2022-10-17T03:45:49.501Z,0.00
2022-10-17T03:46:49.498Z,0.00
2022-10-17T03:47:49.480Z,0.00
2022-10-17T03:48:49.463Z,0.00
2022-10-17T03:49:49.444Z,0.00
2022-10-17T03:50:49.443Z,0.00
2022-10-17T03:51:49.421Z,0.00
2022-10-17T03:52:49.408Z,0.00
2022-10-17T03:53:49.404Z,0.00
2022-10-17T03:54:49.392Z,0.00
2022-10-17T03:55:49.369Z,0.00
2022-10-17T03:56:49.479Z,0.00
2022-10-17T03:57:49.358Z,0.00
2022-10-17T03:58:49.347Z,0.00
2022-10-17T03:59:49.330Z,0.00
2022-10-17T04:00:49.306Z,0.00
2022-10-17T04:01:49.317Z,0.00
2022-10-17T04:02:49.320Z,0.00
2022-10-17T04:03:49.270Z,0.00
2022-10-17T04:04:49.282Z,0.00
2022-10-17T04:05:49.247Z,0.00
2022-10-17T04:06:49.244Z,0.00
2022-10-17T04:07:49.221Z,0.00
2022-10-17T04:08:49.223Z,0.00
2022-10-17T04:09:49.187Z,0.00
2022-10-17T04:10:49.187Z,0.00
2022-10-17T04:11:49.163Z,0.00
2022-10-17T04:12:49.165Z,0.00
2022-10-17T04:13:49.150Z,0.00
2022-10-17T04:14:49.152Z,0.00
2022-10-17T04:15:49.117Z,0.00
2022-10-17T04:16:49.125Z,0.00
2022-10-17T04:17:49.113Z,0.00
2022-10-17T04:18:49.077Z,0.00
2022-10-17T04:19:49.069Z,0.00
2022-10-17T04:20:49.066Z,0.00
2022-10-17T04:21:49.047Z,0.00
2022-10-17T04:22:49.040Z,0.00
2022-10-17T04:23:49.008Z,0.00
2022-10-17T04:24:49.006Z,0.00
2022-10-17T04:25:48.981Z,0.00
2022-10-17T04:26:48.988Z,0.00
2022-10-17T04:27:49.018Z,0.00
2022-10-17T04:28:48.952Z,0.00
2022-10-17T04:29:48.952Z,0.00
2022-10-17T04:30:50.992Z,0.00
2022-10-17T04:31:48.917Z,0.00
2022-10-17T04:32:48.909Z,0.00
2022-10-17T04:33:48.884Z,0.00
2022-10-17T04:34:48.860Z,0.00
2022-10-17T04:35:48.865Z,0.00
2022-10-17T04:36:48.841Z,0.00
2022-10-17T04:37:48.821Z,0.00
2022-10-17T04:38:48.873Z,0.00
2022-10-17T04:39:48.835Z,0.00
2022-10-17T04:40:48.784Z,0.00
2022-10-17T04:41:48.782Z,0.00
2022-10-17T04:42:48.774Z,0.00
2022-10-17T04:43:51.161Z,0.00
2022-10-17T04:44:48.746Z,0.00
2022-10-17T04:45:48.736Z,0.00
2022-10-17T04:46:48.716Z,0.00
2022-10-17T04:47:48.707Z,0.00
2022-10-17T04:48:48.715Z,0.00
2022-10-17T04:49:48.684Z,0.00
2022-10-17T04:50:48.691Z,0.00
2022-10-17T04:51:48.652Z,0.00
2022-10-17T04:52:48.636Z,0.00
2022-10-17T04:53:48.657Z,0.00
2022-10-17T04:54:48.607Z,0.00
2022-10-17T04:55:48.609Z,0.00
2022-10-17T04:56:48.596Z,0.00
2022-10-17T04:57:48.573Z,0.00
2022-10-17T04:58:48.567Z,0.00
2022-10-17T04:59:48.550Z,0.00
2022-10-17T05:00:48.562Z,0.00
2022-10-17T05:01:48.522Z,0.00
2022-10-17T05:02:48.524Z,0.00
2022-10-17T05:03:48.496Z,0.00
2022-10-17T05:04:48.492Z,0.00
2022-10-17T05:05:48.466Z,0.00
2022-10-17T05:06:48.450Z,0.00
2022-10-17T05:07:48.441Z,0.00
2022-10-17T05:08:48.448Z,0.00
2022-10-17T05:09:48.422Z,0.00
2022-10-17T05:10:48.459Z,0.00
2022-10-17T05:11:48.396Z,0.00
2022-10-17T05:12:48.378Z,0.00
2022-10-17T05:13:48.368Z,0.00
2022-10-17T05:14:48.366Z,0.00
2022-10-17T05:15:48.361Z,0.00
2022-10-17T05:16:48.321Z,1.00
2022-10-17T05:17:48.336Z,0.00
2022-10-17T05:18:52.638Z,0.00
2022-10-17T05:19:48.288Z,0.00
2022-10-17T05:20:48.250Z,1.00
2022-10-17T05:21:48.214Z,1.00
2022-10-17T05:22:48.227Z,1.00
2022-10-17T05:23:48.238Z,0.00
2022-10-17T05:24:48.226Z,0.00
2022-10-17T05:25:48.205Z,2.00
2022-10-17T05:26:48.164Z,2.00
2022-10-17T05:27:48.131Z,3.00
2022-10-17T05:28:48.168Z,1.00
2022-10-17T05:29:48.106Z,2.00
2022-10-17T05:30:48.099Z,3.00
2022-10-17T05:31:48.095Z,7.00
2022-10-17T05:32:48.103Z,6.00
2022-10-17T05:33:48.055Z,10.00
2022-10-17T05:34:48.044Z,11.00
2022-10-17T05:35:48.033Z,9.00
2022-10-17T05:36:48.019Z,15.00
2022-10-17T05:37:48.017Z,18.00
2022-10-17T05:38:48.005Z,21.00
2022-10-17T05:39:51.341Z,19.00
2022-10-17T05:40:47.968Z,23.00
2022-10-17T05:41:47.971Z,29.00
2022-10-17T05:42:47.968Z,32.00
2022-10-17T05:43:47.931Z,37.00
2022-10-17T05:44:47.958Z,43.00
2022-10-17T05:45:47.910Z,49.00
2022-10-17T05:46:47.890Z,56.00
2022-10-17T05:47:47.875Z,66.00
2022-10-17T05:48:47.864Z,82.00
2022-10-17T05:49:51.480Z,108.00
2022-10-17T05:50:47.846Z,133.00
2022-10-17T05:51:47.836Z,160.00
2022-10-17T05:52:47.809Z,175.00
2022-10-17T05:53:47.794Z,198.00
2022-10-17T05:54:47.798Z,224.00
2022-10-17T05:55:47.773Z,240.00
2022-10-17T05:56:47.782Z,251.00
2022-10-17T05:57:47.750Z,267.00
2022-10-17T05:58:53.366Z,286.00
2022-10-17T05:59:47.757Z,306.00
2022-10-17T06:00:47.717Z,331.00
2022-10-17T06:01:47.730Z,358.00
2022-10-17T06:02:47.707Z,391.00
2022-10-17T06:03:47.669Z,426.00
2022-10-17T06:04:47.663Z,465.00
2022-10-17T06:05:47.683Z,509.00
2022-10-17T06:06:47.630Z,556.00
2022-10-17T06:07:47.638Z,604.00
2022-10-17T06:08:47.639Z,642.00
2022-10-17T06:09:47.601Z,683.00
2022-10-17T06:10:47.587Z,733.00
2022-10-17T06:11:47.561Z,798.00
2022-10-17T06:12:47.551Z,849.00
2022-10-17T06:13:47.538Z,898.00
2022-10-17T06:14:47.577Z,955.00
2022-10-17T06:15:47.535Z,1016.00
2022-10-17T06:16:47.509Z,1056.00
2022-10-17T06:17:47.489Z,1131.00
2022-10-17T06:19:47.468Z,1272.00
2022-10-17T06:20:47.477Z,1358.00
2022-10-17T06:21:47.438Z,1425.00
2022-10-17T06:22:47.435Z,1527.00
2022-10-17T06:23:47.417Z,1570.00
2022-10-17T06:24:47.421Z,1625.00
2022-10-17T06:25:47.389Z,1717.00
2022-10-17T06:26:47.421Z,1786.00
2022-10-17T06:27:47.400Z,1811.00
2022-10-17T06:28:47.451Z,1951.00
2022-10-17T06:29:47.340Z,2085.00
2022-10-17T06:30:47.329Z,2105.00
2022-10-17T06:31:47.311Z,2090.00
2022-10-17T06:32:47.319Z,2163.00
2022-10-17T06:33:47.306Z,2169.00
2022-10-17T06:34:47.283Z,2181.00
2022-10-17T06:35:47.258Z,2216.00
2022-10-17T06:36:47.303Z,2283.00
2022-10-17T06:37:47.264Z,2385.00
2022-10-17T06:38:47.279Z,2448.00
2022-10-17T06:39:47.234Z,2542.00
2022-10-17T06:40:47.237Z,2599.00
2022-10-17T06:41:47.211Z,2696.00
2022-10-17T06:42:47.180Z,2799.00
2022-10-17T06:43:47.190Z,2840.00
2022-10-17T06:44:47.236Z,2910.00
2022-10-17T06:45:47.220Z,2974.00
2022-10-17T06:46:47.152Z,3054.00
2022-10-17T06:47:47.131Z,3130.00
2022-10-17T06:48:47.108Z,3215.00
2022-10-17T06:49:47.126Z,3293.00
2022-10-17T06:50:47.383Z,3377.00
2022-10-17T06:51:47.689Z,3483.00
2022-10-17T06:52:47.079Z,3592.00
2022-10-17T06:53:47.037Z,3701.00
2022-10-17T06:54:47.057Z,3824.00
2022-10-17T06:55:47.033Z,3932.00
2022-10-17T06:56:47.056Z,4040.00
2022-10-17T06:57:47.004Z,4179.00
2022-10-17T06:58:47.022Z,4305.00
2022-10-17T06:59:46.982Z,4428.00
2022-10-17T07:00:47.246Z,4532.00
2022-10-17T07:01:47.286Z,4680.00
2022-10-17T07:02:47.282Z,4801.00
2022-10-17T07:03:46.935Z,4949.00
2022-10-17T07:04:49.734Z,5085.00
2022-10-17T07:05:46.897Z,5250.00
2022-10-17T07:06:47.175Z,5343.00
2022-10-17T07:07:51.010Z,5445.00
2022-10-17T07:08:46.891Z,5603.00
2022-10-17T07:09:46.871Z,5671.00
2022-10-17T07:10:46.819Z,5839.00
2022-10-17T07:11:46.813Z,5798.00
2022-10-17T07:12:46.804Z,5739.00
2022-10-17T07:13:46.901Z,5811.00
2022-10-17T07:14:46.782Z,5864.00
2022-10-17T07:15:46.798Z,5946.00
2022-10-17T07:16:46.756Z,6090.00
2022-10-17T07:17:46.749Z,6282.00
2022-10-17T07:18:46.727Z,6300.00
2022-10-17T07:19:46.724Z,6358.00
2022-10-17T07:20:46.714Z,6394.00
2022-10-17T07:21:46.683Z,6541.00
2022-10-17T07:22:46.665Z,6641.00
2022-10-17T07:23:46.657Z,6655.00
2022-10-17T07:24:46.696Z,6520.00
2022-10-17T07:25:46.665Z,7094.00
2022-10-17T07:26:46.941Z,7687.00
2022-10-17T07:27:46.615Z,7915.00
2022-10-17T07:28:46.722Z,7954.00
2022-10-17T07:29:47.187Z,7910.00
2022-10-17T07:30:50.604Z,8131.00
2022-10-17T07:31:46.572Z,9547.00
2022-10-17T07:32:46.553Z,9112.00
2022-10-17T07:34:46.525Z,8263.00
2022-10-17T07:35:46.549Z,10898.00
2022-10-17T07:36:46.479Z,12031.00
2022-10-17T07:37:46.475Z,11792.00
2022-10-17T07:38:46.488Z,11673.00
2022-10-17T07:39:46.447Z,13449.00
2022-10-17T07:40:46.440Z,11983.00
2022-10-17T07:41:46.432Z,10608.00
2022-10-17T07:42:46.434Z,10556.00
2022-10-17T07:43:46.420Z,10254.00
2022-10-17T07:44:46.414Z,10533.00
2022-10-17T07:45:46.359Z,10831.00
2022-10-17T07:46:46.351Z,11272.00
2022-10-17T07:47:46.399Z,10830.00
2022-10-17T07:48:46.340Z,11767.00
2022-10-17T07:49:46.321Z,11245.00
2022-10-17T07:50:46.795Z,11111.00
2022-10-17T07:52:46.304Z,10573.00
2022-10-17T07:53:48.706Z,10664.00
2022-10-17T07:54:46.281Z,10707.00
2022-10-17T07:55:46.244Z,11202.00
2022-10-17T07:56:46.247Z,11027.00
2022-10-17T07:57:46.221Z,10637.00
2022-10-17T07:58:46.237Z,10270.00
2022-10-17T07:59:46.207Z,10379.00
2022-10-17T08:00:46.281Z,10554.00
2022-10-17T08:01:46.221Z,10629.00
2022-10-17T08:02:46.199Z,10606.00
2022-10-17T08:03:46.153Z,10439.00
2022-10-17T08:04:46.136Z,9986.00
2022-10-17T08:05:46.148Z,9776.00
2022-10-17T08:06:48.976Z,9830.00
2022-10-17T08:07:46.108Z,9328.00
2022-10-17T08:08:46.155Z,9340.00
2022-10-17T08:09:46.080Z,10702.00
2022-10-17T08:10:46.042Z,11225.00
2022-10-17T08:11:46.120Z,13543.00
2022-10-17T08:12:46.040Z,9834.00
2022-10-17T08:13:46.126Z,13758.00
2022-10-17T08:14:46.038Z,14074.00
2022-10-17T08:15:46.000Z,15099.00
2022-10-17T08:16:45.987Z,12099.00
2022-10-17T08:17:46.004Z,13637.00
2022-10-17T08:18:45.967Z,14324.00
2022-10-17T08:19:45.983Z,15650.00
2022-10-17T08:20:45.935Z,15198.00
2022-10-17T08:21:46.237Z,14982.00
2022-10-17T08:22:45.903Z,17192.00
2022-10-17T08:23:45.875Z,17460.00
2022-10-17T08:24:45.892Z,18256.00
2022-10-17T08:25:45.851Z,20242.00
2022-10-17T08:26:47.193Z,16287.00
2022-10-17T08:27:45.862Z,18481.00
2022-10-17T08:28:45.927Z,16788.00
2022-10-17T08:29:45.816Z,20278.00
2022-10-17T08:30:45.855Z,19801.00
2022-10-17T08:31:47.859Z,18826.00
2022-10-17T08:32:45.777Z,17262.00
2022-10-17T08:33:46.015Z,18400.00
2022-10-17T08:34:45.751Z,18173.00
2022-10-17T08:35:45.752Z,19669.00
2022-10-17T08:36:45.708Z,21162.00
2022-10-17T08:37:45.754Z,21448.00
2022-10-17T08:38:48.004Z,23003.00
2022-10-17T08:39:45.687Z,11694.00
2022-10-17T08:40:45.958Z,23175.00
2022-10-17T08:41:45.666Z,23973.00
2022-10-17T08:42:45.678Z,23136.00
2022-10-17T08:43:45.647Z,23335.00
2022-10-17T08:44:45.627Z,25835.00
2022-10-17T08:45:45.635Z,21692.00
2022-10-17T08:46:45.601Z,24502.00
2022-10-17T08:47:45.580Z,25984.00
2022-10-17T08:48:46.646Z,24870.00
2022-10-17T08:49:45.545Z,25287.00
2022-10-17T08:50:45.645Z,26188.00
2022-10-17T08:51:45.529Z,22190.00
2022-10-17T08:52:45.536Z,21625.00
2022-10-17T08:53:45.549Z,15081.00
2022-10-17T08:54:45.481Z,8401.00
2022-10-17T08:55:45.838Z,23576.00
2022-10-17T08:56:48.884Z,26187.00
2022-10-17T08:57:46.225Z,25317.00
2022-10-17T08:58:45.433Z,25616.00
2022-10-17T08:59:45.443Z,28484.00
2022-10-17T09:00:45.405Z,29162.00
2022-10-17T09:01:45.409Z,35107.00
2022-10-17T09:02:46.450Z,28799.00
2022-10-17T09:03:53.812Z,21595.00
2022-10-17T09:04:45.372Z,17958.00
2022-10-17T09:05:45.339Z,18099.00
2022-10-17T09:06:45.334Z,11905.00
2022-10-17T09:08:00.390Z,27798.00
2022-10-17T09:08:45.359Z,12947.00
2022-10-17T09:09:45.293Z,23202.00
2022-10-17T09:10:46.233Z,33267.00
2022-10-17T09:11:45.280Z,11041.00
2022-10-17T09:12:45.272Z,35309.00
2022-10-17T09:13:45.265Z,24436.00
2022-10-17T09:14:45.312Z,34718.00
2022-10-17T09:15:45.210Z,36628.00
2022-10-17T09:16:45.235Z,28623.00
2022-10-17T09:17:45.207Z,27996.00
2022-10-17T09:18:45.176Z,19623.00
2022-10-17T09:19:45.177Z,8145.00
2022-10-17T09:20:45.192Z,18224.00
2022-10-17T09:21:45.145Z,28731.00
2022-10-17T09:22:46.443Z,30540.00
2022-10-17T09:23:45.219Z,27174.00
2022-10-17T09:24:45.102Z,31792.00
2022-10-17T09:25:45.143Z,19021.00
2022-10-17T09:26:45.909Z,15691.00
2022-10-17T09:27:45.126Z,17201.00
2022-10-17T09:28:45.127Z,20212.00
2022-10-17T09:29:45.350Z,16853.00
2022-10-17T09:30:46.360Z,15761.00
2022-10-17T09:31:45.475Z,14495.00
2022-10-17T09:32:45.413Z,21277.00
2022-10-17T09:33:54.338Z,15990.00
2022-10-17T09:34:45.286Z,16560.00
2022-10-17T09:35:45.252Z,19335.00
2022-10-17T09:36:45.644Z,22224.00
2022-10-17T09:37:45.200Z,20222.00
2022-10-17T09:38:45.275Z,26215.00
2022-10-17T09:39:45.191Z,27865.00
2022-10-17T09:40:45.169Z,18983.00
2022-10-17T09:41:46.808Z,23726.00
2022-10-17T09:42:46.248Z,29492.00
2022-10-17T09:43:45.110Z,28252.00
2022-10-17T09:44:45.233Z,24193.00
2022-10-17T09:45:45.164Z,31072.00
2022-10-17T09:46:45.232Z,23910.00
2022-10-17T09:47:45.879Z,21930.00
2022-10-17T09:48:46.915Z,21831.00
2022-10-17T09:49:45.076Z,20615.00
2022-10-17T09:50:48.279Z,19891.00
2022-10-17T09:51:45.283Z,20228.00
2022-10-17T09:52:45.068Z,21063.00
2022-10-17T09:53:45.006Z,21585.00
2022-10-17T09:54:45.016Z,22255.00
2022-10-17T09:55:45.024Z,21090.00
2022-10-17T09:56:46.622Z,21204.00
2022-10-17T09:57:44.928Z,18773.00
2022-10-17T09:58:45.051Z,16588.00
2022-10-17T09:59:44.955Z,17587.00
2022-10-17T10:00:46.161Z,16406.00
2022-10-17T10:01:45.787Z,13552.00
2022-10-17T10:02:44.027Z,10941.00
2022-10-17T10:03:44.978Z,8849.00
2022-10-17T10:05:03.236Z,7410.00
2022-10-17T10:05:44.770Z,6011.00
2022-10-17T10:06:49.002Z,5416.00
2022-10-17T10:07:44.877Z,5746.00
2022-10-17T10:08:44.770Z,7244.00
2022-10-17T10:09:44.700Z,9112.00
2022-10-17T10:10:44.785Z,10142.00
2022-10-17T10:11:45.293Z,10485.00
2022-10-17T10:12:44.640Z,10763.00
2022-10-17T10:13:44.972Z,10590.00
2022-10-17T10:14:47.199Z,10692.00
2022-10-17T10:15:45.319Z,11095.00
2022-10-17T10:16:47.066Z,10458.00
2022-10-17T10:17:44.511Z,10206.00
2022-10-17T10:18:45.513Z,10371.00
2022-10-17T10:19:44.614Z,10005.00
2022-10-17T10:20:44.438Z,9584.00
2022-10-17T10:21:46.469Z,8433.00
2022-10-17T10:22:44.886Z,7522.00
2022-10-17T10:23:44.825Z,6899.00
2022-10-17T10:24:46.504Z,6941.00
2022-10-17T10:25:47.788Z,7908.00
2022-10-17T10:26:44.325Z,9088.00
2022-10-17T10:27:45.856Z,10137.00
2022-10-17T10:28:44.367Z,10961.00
2022-10-17T10:29:44.538Z,11709.00
2022-10-17T10:30:44.263Z,12439.00
2022-10-17T10:31:44.601Z,11967.00
2022-10-17T10:32:46.145Z,10648.00
2022-10-17T10:33:49.710Z,10223.00
2022-10-17T10:34:44.220Z,9858.00
2022-10-17T10:35:44.223Z,10128.00
2022-10-17T10:36:49.471Z,10353.00
2022-10-17T10:37:45.280Z,9960.00
2022-10-17T10:38:44.177Z,8616.00
2022-10-17T10:39:44.173Z,7254.00
2022-10-17T10:40:44.210Z,5816.00
2022-10-17T10:41:44.870Z,5281.00
2022-10-17T10:42:44.211Z,7398.00
2022-10-17T10:43:44.136Z,11074.00
2022-10-17T10:44:50.447Z,13353.00
2022-10-17T10:45:48.658Z,15190.00
2022-10-17T10:46:44.127Z,16964.00
2022-10-17T10:47:44.042Z,18179.00
2022-10-17T10:48:44.118Z,18508.00
2022-10-17T10:49:45.277Z,16619.00
2022-10-17T10:50:45.443Z,14662.00
2022-10-17T10:51:44.164Z,14629.00
2022-10-17T10:52:44.044Z,14902.00
2022-10-17T10:53:44.257Z,14672.00
2022-10-17T10:54:44.392Z,13711.00
2022-10-17T10:55:49.563Z,12263.00
2022-10-17T10:56:43.956Z,11185.00
2022-10-17T10:57:44.177Z,11185.00
2022-10-17T10:58:44.166Z,11884.00
2022-10-17T10:59:45.081Z,12339.00
2022-10-17T11:00:46.017Z,13282.00
2022-10-17T11:01:51.027Z,13266.00
2022-10-17T11:02:43.934Z,12732.00
2022-10-17T11:03:43.882Z,11226.00
2022-10-17T11:04:43.883Z,12260.00
2022-10-17T11:05:46.811Z,14130.00
2022-10-17T11:06:45.740Z,15256.00
2022-10-17T11:07:44.343Z,12984.00
2022-10-17T11:08:43.799Z,10159.00
2022-10-17T11:10:17.050Z,7894.00
2022-10-17T11:10:59.068Z,5910.00
2022-10-17T11:11:43.765Z,8344.00
2022-10-17T11:13:43.829Z,10911.00
2022-10-17T11:14:43.719Z,9344.00
2022-10-17T11:15:43.915Z,7679.00
2022-10-17T11:16:43.899Z,6883.00
2022-10-17T11:17:44.280Z,7806.00
2022-10-17T11:18:43.697Z,7062.00
2022-10-17T11:19:43.702Z,5712.00
2022-10-17T11:20:43.626Z,5056.00
2022-10-17T11:21:43.616Z,5774.00
2022-10-17T11:22:43.609Z,7738.00
2022-10-17T11:23:43.896Z,11864.00
2022-10-17T11:24:44.294Z,14063.00
2022-10-17T11:25:43.600Z,12368.00
2022-10-17T11:26:44.316Z,11419.00
2022-10-17T11:27:44.299Z,11408.00
2022-10-17T11:28:43.678Z,11682.00
2022-10-17T11:29:43.755Z,11871.00
2022-10-17T11:31:43.511Z,14447.00
2022-10-17T11:32:43.508Z,13566.00
2022-10-17T11:33:43.510Z,11074.00
2022-10-17T11:34:44.276Z,10440.00
2022-10-17T11:35:43.510Z,12130.00
2022-10-17T11:36:43.568Z,12858.00
2022-10-17T11:37:45.035Z,13053.00
2022-10-17T11:38:43.614Z,12936.00
2022-10-17T11:39:43.507Z,12651.00
2022-10-17T11:40:43.375Z,13182.00
2022-10-17T11:41:43.360Z,13757.00
2022-10-17T11:42:43.666Z,19567.00
2022-10-17T11:43:43.362Z,20853.00
2022-10-17T11:44:44.066Z,20414.00
2022-10-17T11:45:43.348Z,17368.00
2022-10-17T11:46:43.310Z,15039.00
2022-10-17T11:47:43.294Z,20554.00
2022-10-17T11:48:43.362Z,16572.00
2022-10-17T11:49:44.505Z,16270.00
2022-10-17T11:52:00.903Z,16379.00
2022-10-17T11:52:56.108Z,15640.00
2022-10-17T11:53:43.779Z,14330.00
2022-10-17T11:54:43.993Z,13276.00
2022-10-17T11:55:43.780Z,13061.00
2022-10-17T11:56:44.248Z,13076.00
2022-10-17T11:57:43.662Z,13881.00
2022-10-17T11:58:43.133Z,9822.00
2022-10-17T11:59:43.143Z,27583.00
2022-10-17T12:00:46.187Z,19848.00
2022-10-17T12:01:43.138Z,20145.00
2022-10-17T12:02:43.339Z,19717.00
2022-10-17T12:03:43.090Z,17796.00
2022-10-17T12:04:49.540Z,15411.00
2022-10-17T12:05:43.312Z,13376.00
2022-10-17T12:06:43.083Z,13529.00
2022-10-17T12:08:43.074Z,15241.00
2022-10-17T12:09:43.034Z,14549.00
2022-10-17T12:10:43.007Z,13886.00
2022-10-17T12:11:43.001Z,13294.00
2022-10-17T12:12:43.210Z,12787.00
2022-10-17T12:13:42.951Z,11797.00
2022-10-17T12:14:42.950Z,10476.00
2022-10-17T12:15:46.637Z,9204.00
2022-10-17T12:17:42.913Z,7501.00
2022-10-17T12:18:43.309Z,6915.00
2022-10-17T12:19:43.389Z,6453.00
2022-10-17T12:20:44.091Z,6367.00
2022-10-17T12:21:43.533Z,6734.00
2022-10-17T12:22:42.893Z,7256.00
2022-10-17T12:23:42.816Z,7482.00
2022-10-17T12:24:42.918Z,8251.00
2022-10-17T12:25:42.872Z,9198.00
2022-10-17T12:26:42.784Z,9169.00
2022-10-17T12:27:42.862Z,8861.00
2022-10-17T12:28:45.586Z,8673.00
2022-10-17T12:29:42.763Z,8594.00
2022-10-17T12:30:42.871Z,8774.00
2022-10-17T12:31:42.765Z,9146.00
2022-10-17T12:33:00.508Z,9506.00
2022-10-17T12:33:42.945Z,9462.00
2022-10-17T12:34:45.545Z,9831.00
2022-10-17T12:35:42.742Z,10190.00
2022-10-17T12:36:42.684Z,10795.00
2022-10-17T12:37:43.169Z,10723.00
2022-10-17T12:38:44.881Z,10358.00
2022-10-17T12:39:42.635Z,9886.00